Time;durP1;ratioP1;P1;durP2;ratioP2;P2;SDS_P1;SDS_P2;PMS_P1;PMS_P2;Temp;Humidity;BMP_temperature;BMP_pressure;BME280_temperature;BME280_humidity;BME280_pressure;Samples;Min_cycle;Max_cycle;Signal;HPM_P1;HPM_P2
2021/07/14 00:00:01;;;;;;;15.05;4.85;;;;;;;;;;5034833;28;20029;-72
2021/07/14 00:02:27;;;;;;;12.50;4.28;;;;;;;;;;5035019;28;20022;-73
2021/07/14 00:04:54;;;;;;;22.10;4.35;;;;;;;;;;5035147;28;20029;-74
2021/07/14 00:07:20;;;;;;;16.88;4.13;;;;;;;;;;5035071;28;20493;-74
2021/07/14 00:09:46;;;;;;;13.60;4.10;;;;;;;;;;5035019;28;20025;-74
2021/07/14 00:12:14;;;;;;;14.23;4.35;;;;;;;;;;5035003;28;20025;-75
2021/07/14 00:22:36;;;;;;;21.05;4.32;;;;;;;;;;5034966;28;20064;-74
2021/07/14 00:25:04;;;;;;;17.30;3.55;;;;;;;;;;5034631;28;20044;-75
2021/07/14 00:27:30;;;;;;;14.80;3.70;;;;;;;;;;5034711;28;20112;-75
2021/07/14 00:29:57;;;;;;;17.50;4.43;;;;;;;;;;5034693;28;20478;-74
2021/07/14 00:32:26;;;;;;;23.70;3.92;;;;;;;;;;5034508;28;20028;-74
2021/07/14 00:34:53;;;;;;;13.50;3.55;;;;;;;;;;5034428;28;20029;-73
2021/07/14 00:37:19;;;;;;;16.27;4.07;;;;;;;;;;5034724;28;20022;-74
2021/07/14 00:39:55;;;;;;;16.13;3.85;;;;;;;;;;5034383;28;20075;-74
2021/07/14 00:42:21;;;;;;;15.25;3.70;;;;;;;;;;5034465;28;20025;-74
2021/07/14 00:44:47;;;;;;;14.82;3.58;;;;;;;;;;5034270;28;20072;-74
2021/07/14 00:47:13;;;;;;;16.98;3.60;;;;;;;;;;5034289;28;20022;-75
2021/07/14 00:49:40;;;;;;;12.40;3.50;;;;;;;;;;5034345;28;20029;-74
2021/07/14 00:52:09;;;;;;;18.73;3.63;;;;;;;;;;5034099;28;20037;-75
2021/07/14 00:54:35;;;;;;;18.65;4.18;;;;;;;;;;5034240;28;20413;-74
2021/07/14 00:57:03;;;;;;;13.30;3.42;;;;;;;;;;5033851;28;20036;-74
2021/07/14 00:59:29;;;;;;;15.57;3.83;;;;;;;;;;5030266;28;20402;-75
2021/07/14 01:01:56;;;;;;;20.88;3.85;;;;;;;;;;5031339;28;20034;-73
2021/07/14 01:04:22;;;;;;;18.67;4.47;;;;;;;;;;5031937;28;20103;-72
2021/07/14 01:06:48;;;;;;;21.98;4.93;;;;;;;;;;5033798;28;20061;-72
2021/07/14 01:09:16;;;;;;;21.33;4.07;;;;;;;;;;5033706;28;20036;-73
2021/07/14 01:11:42;;;;;;;17.67;3.88;;;;;;;;;;5033806;28;20104;-73
2021/07/14 01:14:11;;;;;;;17.73;4.35;;;;;;;;;;5033160;28;20053;-72
2021/07/14 01:16:42;;;;;;;18.00;3.88;;;;;;;;;;5033684;28;20025;-74
2021/07/14 01:19:27;;;;;;;16.33;3.53;;;;;;;;;;5033514;28;20032;-74
2021/07/14 01:21:57;;;;;;;19.90;3.45;;;;;;;;;;5033165;28;20103;-74
2021/07/14 01:24:51;;;;;;;15.20;3.58;;;;;;;;;;5033169;28;20060;-75
2021/07/14 01:27:18;;;;;;;12.77;3.33;;;;;;;;;;5033378;28;20466;-73
2021/07/14 01:29:49;;;;;;;13.80;3.13;;;;;;;;;;5033333;28;20032;-75
2021/07/14 01:32:17;;;;;;;18.30;3.78;;;;;;;;;;5033521;28;20521;-74
2021/07/14 01:34:45;;;;;;;17.73;3.22;;;;;;;;;;5033367;28;20025;-75
2021/07/14 01:37:13;;;;;;;15.13;2.90;;;;;;;;;;5032997;28;20052;-72
2021/07/14 01:39:40;;;;;;;17.38;3.15;;;;;;;;;;5032947;28;20108;-73
2021/07/14 01:42:08;;;;;;;11.45;2.83;;;;;;;;;;5032954;28;20413;-74
2021/07/14 01:44:35;;;;;;;14.02;3.33;;;;;;;;;;5032888;28;20022;-74
2021/07/14 01:47:03;;;;;;;14.45;3.00;;;;;;;;;;5033137;28;20039;-74
2021/07/14 01:49:32;;;;;;;15.43;3.45;;;;;;;;;;5033126;28;20022;-74
2021/07/14 01:52:02;;;;;;;12.50;3.05;;;;;;;;;;5032870;28;20443;-74
2021/07/14 01:54:29;;;;;;;9.73;2.83;;;;;;;;;;5033164;28;20096;-73
2021/07/14 01:56:56;;;;;;;10.88;2.90;;;;;;;;;;5033451;28;20025;-72
2021/07/14 01:59:23;;;;;;;11.55;2.70;;;;;;;;;;5032841;28;20049;-74
2021/07/14 02:01:50;;;;;;;13.48;3.60;;;;;;;;;;5033123;28;20079;-73
2021/07/14 02:04:35;;;;;;;16.05;2.85;;;;;;;;;;5032812;28;20470;-73
2021/07/14 02:07:04;;;;;;;17.17;3.38;;;;;;;;;;5032973;28;20033;-74
2021/07/14 02:09:32;;;;;;;19.80;3.30;;;;;;;;;;5032842;28;20029;-72
2021/07/14 02:11:59;;;;;;;8.57;2.22;;;;;;;;;;5032762;28;20022;-74
2021/07/14 02:14:29;;;;;;;14.27;3.45;;;;;;;;;;5032563;28;20049;-74
2021/07/14 02:16:57;;;;;;;18.13;2.97;;;;;;;;;;5032917;28;20029;-73
2021/07/14 02:19:24;;;;;;;10.95;2.42;;;;;;;;;;5032943;28;20022;-72
2021/07/14 02:21:50;;;;;;;14.07;2.78;;;;;;;;;;5033027;28;20100;-73
2021/07/14 02:24:16;;;;;;;14.27;2.50;;;;;;;;;;5032839;28;20489;-74
2021/07/14 02:26:43;;;;;;;15.32;2.72;;;;;;;;;;5032917;28;20026;-75
2021/07/14 02:29:09;;;;;;;11.15;2.35;;;;;;;;;;5032628;28;20049;-73
2021/07/14 02:31:35;;;;;;;12.57;2.83;;;;;;;;;;5032997;28;20060;-73
2021/07/14 02:34:02;;;;;;;13.85;2.85;;;;;;;;;;5032464;28;20084;-73
2021/07/14 02:36:35;;;;;;;11.07;2.67;;;;;;;;;;5032693;28;20053;-72
2021/07/14 02:39:03;;;;;;;13.15;2.92;;;;;;;;;;5032929;28;20025;-75
2021/07/14 02:41:33;;;;;;;10.23;2.65;;;;;;;;;;5032635;28;20029;-75
2021/07/14 02:44:02;;;;;;;13.73;2.88;;;;;;;;;;5032776;28;20033;-75
2021/07/14 02:46:30;;;;;;;13.43;2.80;;;;;;;;;;5032998;28;20449;-74
2021/07/14 02:49:02;;;;;;;14.05;2.60;;;;;;;;;;5032754;28;20109;-75
2021/07/14 02:51:29;;;;;;;11.40;2.40;;;;;;;;;;5032767;28;20106;-74
2021/07/14 02:53:57;;;;;;;7.13;2.42;;;;;;;;;;5032414;28;20076;-75
2021/07/14 02:56:24;;;;;;;11.18;3.30;;;;;;;;;;5032464;28;20028;-75
2021/07/14 02:58:56;;;;;;;11.60;2.47;;;;;;;;;;5032582;28;20379;-75
2021/07/14 03:01:22;;;;;;;10.23;2.47;;;;;;;;;;5032719;28;20028;-75
2021/07/14 03:03:49;;;;;;;11.65;2.92;;;;;;;;;;5032319;28;20103;-75
2021/07/14 03:06:16;;;;;;;11.23;2.92;;;;;;;;;;5032661;28;20025;-74
2021/07/14 03:08:46;;;;;;;11.75;2.58;;;;;;;;;;5032508;28;20485;-73
2021/07/14 03:11:12;;;;;;;13.02;2.92;;;;;;;;;;5032592;28;20079;-75
2021/07/14 03:13:38;;;;;;;9.20;2.83;;;;;;;;;;5032389;28;20457;-75
2021/07/14 03:16:05;;;;;;;8.40;2.90;;;;;;;;;;5032616;28;20034;-75
2021/07/14 03:18:32;;;;;;;14.38;2.78;;;;;;;;;;5032911;28;20397;-74
2021/07/14 03:20:59;;;;;;;12.90;2.40;;;;;;;;;;5032157;28;20111;-75
2021/07/14 03:23:26;;;;;;;11.30;2.60;;;;;;;;;;5035629;28;20471;-74
2021/07/14 03:25:55;;;;;;;7.90;2.63;;;;;;;;;;5036156;28;20037;-75
2021/07/14 03:28:21;;;;;;;8.75;2.42;;;;;;;;;;5035705;28;20029;-75
2021/07/14 03:30:48;;;;;;;10.20;3.28;;;;;;;;;;5035535;28;20025;-75
2021/07/14 03:33:15;;;;;;;13.00;3.20;;;;;;;;;;5035580;28;20075;-74
2021/07/14 03:35:41;;;;;;;15.82;3.10;;;;;;;;;;5035665;28;20025;-75
2021/07/14 03:38:11;;;;;;;13.95;2.85;;;;;;;;;;5035955;28;20033;-74
2021/07/14 03:40:40;;;;;;;9.07;2.50;;;;;;;;;;5034561;28;20028;-75
2021/07/14 03:43:07;;;;;;;5.57;2.00;;;;;;;;;;5035643;28;20378;-76
2021/07/14 03:45:33;;;;;;;8.85;2.55;;;;;;;;;;5035133;28;20041;-76
2021/07/14 03:48:00;;;;;;;9.68;2.10;;;;;;;;;;5035529;28;20378;-75
2021/07/14 03:50:26;;;;;;;9.57;2.30;;;;;;;;;;5035492;28;20030;-76
2021/07/14 03:52:53;;;;;;;8.73;2.10;;;;;;;;;;5035521;28;20541;-75
2021/07/14 03:55:19;;;;;;;9.15;2.88;;;;;;;;;;5035555;28;20096;-75
2021/07/14 03:57:46;;;;;;;8.07;2.10;;;;;;;;;;5035222;28;20025;-75
2021/07/14 04:00:12;;;;;;;8.60;2.13;;;;;;;;;;5035175;28;20025;-76
2021/07/14 04:02:39;;;;;;;8.60;2.28;;;;;;;;;;5035439;28;20033;-75
2021/07/14 04:05:06;;;;;;;13.57;2.72;;;;;;;;;;5035074;28;20068;-76
2021/07/14 04:07:33;;;;;;;6.53;2.08;;;;;;;;;;5035105;28;20022;-76
2021/07/14 04:10:01;;;;;;;10.27;2.75;;;;;;;;;;5035420;28;20026;-75
2021/07/14 04:12:27;;;;;;;9.65;2.22;;;;;;;;;;5035003;28;20013;-76
2021/07/14 04:14:53;;;;;;;11.02;2.13;;;;;;;;;;5034946;28;20049;-76
2021/07/14 04:17:19;;;;;;;7.90;2.50;;;;;;;;;;5034752;28;20029;-76
2021/07/14 04:19:45;;;;;;;13.77;2.58;;;;;;;;;;5034969;28;20108;-75
2021/07/14 04:22:12;;;;;;;7.97;2.30;;;;;;;;;;5035090;28;20485;-75
2021/07/14 04:24:39;;;;;;;9.18;2.42;;;;;;;;;;5034883;28;20458;-76
2021/07/14 04:27:05;;;;;;;9.95;2.60;;;;;;;;;;5034907;28;20075;-71
2021/07/14 04:29:31;;;;;;;9.93;2.75;;;;;;;;;;5034686;28;20029;-71
2021/07/14 04:31:57;;;;;;;12.00;2.40;;;;;;;;;;5034616;28;20453;-72
2021/07/14 04:34:25;;;;;;;8.20;2.95;;;;;;;;;;5034328;28;20043;-72
2021/07/14 04:36:51;;;;;;;10.60;2.50;;;;;;;;;;5034421;28;20540;-71
2021/07/14 04:39:17;;;;;;;9.25;2.78;;;;;;;;;;5034457;28;20030;-70
2021/07/14 04:41:44;;;;;;;9.10;3.00;;;;;;;;;;5034426;28;20025;-71
2021/07/14 04:44:11;;;;;;;11.88;3.03;;;;;;;;;;5034089;28;20428;-71
2021/07/14 04:46:38;;;;;;;11.50;3.17;;;;;;;;;;5034134;28;20144;-70
2021/07/14 04:49:04;;;;;;;14.57;4.22;;;;;;;;;;5034227;28;20021;-71
2021/07/14 04:51:30;;;;;;;11.52;3.60;;;;;;;;;;5033950;28;20112;-71
2021/07/14 04:53:56;;;;;;;15.52;4.93;;;;;;;;;;5034019;28;20446;-71
2021/07/14 04:56:22;;;;;;;12.73;4.05;;;;;;;;;;5033948;28;20083;-71
2021/07/14 04:58:48;;;;;;;11.80;3.95;;;;;;;;;;5033815;28;20064;-72
2021/07/14 05:01:15;;;;;;;10.93;3.88;;;;;;;;;;5034024;28;20041;-69
2021/07/14 05:03:44;;;;;;;12.07;4.50;;;;;;;;;;5033799;28;20091;-71
2021/07/14 05:06:11;;;;;;;10.25;4.20;;;;;;;;;;5033782;28;20437;-71
2021/07/14 05:08:37;;;;;;;15.25;4.28;;;;;;;;;;5033856;28;20033;-71
2021/07/14 05:11:03;;;;;;;16.55;4.85;;;;;;;;;;5033678;28;20530;-66
2021/07/14 05:13:29;;;;;;;9.88;5.28;;;;;;;;;;5033424;28;20030;-67
2021/07/14 05:15:55;;;;;;;15.27;5.00;;;;;;;;;;5033778;28;20436;-67
2021/07/14 05:18:21;;;;;;;13.27;4.35;;;;;;;;;;5033787;28;20089;-66
2021/07/14 05:20:47;;;;;;;16.05;3.83;;;;;;;;;;5033548;28;20108;-66
2021/07/14 05:23:13;;;;;;;15.27;5.03;;;;;;;;;;5033293;28;20060;-67
2021/07/14 05:25:39;;;;;;;13.73;4.40;;;;;;;;;;5032837;28;20080;-67
2021/07/14 05:28:05;;;;;;;12.23;4.28;;;;;;;;;;5031860;28;20029;-67
2021/07/14 05:30:32;;;;;;;13.07;4.70;;;;;;;;;;5031536;28;20386;-67
2021/07/14 05:32:59;;;;;;;11.23;3.97;;;;;;;;;;5031752;28;20017;-67
2021/07/14 05:35:25;;;;;;;14.75;4.05;;;;;;;;;;5033516;28;20029;-67
2021/07/14 05:37:51;;;;;;;12.35;4.45;;;;;;;;;;5032915;28;20037;-68
2021/07/14 05:40:17;;;;;;;12.18;4.85;;;;;;;;;;5032870;28;20025;-68
2021/07/14 05:42:43;;;;;;;13.38;4.32;;;;;;;;;;5033161;28;20056;-68
2021/07/14 05:45:09;;;;;;;10.60;4.03;;;;;;;;;;5030934;28;20119;-67
2021/07/14 05:47:35;;;;;;;12.63;4.40;;;;;;;;;;5032493;28;20036;-67
2021/07/14 05:50:04;;;;;;;13.73;4.47;;;;;;;;;;5031990;28;20104;-67
2021/07/14 05:52:30;;;;;;;12.43;4.32;;;;;;;;;;5050175;28;20120;-67
2021/07/14 05:54:56;;;;;;;11.10;4.25;;;;;;;;;;5052527;28;20056;-68
2021/07/14 05:57:22;;;;;;;49.05;5.53;;;;;;;;;;5051914;28;20025;-68
2021/07/14 05:59:48;;;;;;;12.73;5.38;;;;;;;;;;5052370;28;20079;-68
2021/07/14 06:02:14;;;;;;;11.57;4.43;;;;;;;;;;5052407;28;20029;-68
2021/07/14 06:04:40;;;;;;;16.70;4.55;;;;;;;;;;5052273;28;20025;-68
2021/07/14 06:07:07;;;;;;;16.58;5.35;;;;;;;;;;5052616;28;20485;-68
2021/07/14 06:09:33;;;;;;;12.18;4.20;;;;;;;;;;5052797;28;20017;-68
2021/07/14 06:11:59;;;;;;;12.45;4.50;;;;;;;;;;5050331;28;20044;-68
2021/07/14 06:14:26;;;;;;;13.30;4.65;;;;;;;;;;5032248;28;20041;-69
2021/07/14 06:16:52;;;;;;;12.95;4.75;;;;;;;;;;5032663;28;20036;-70
2021/07/14 06:19:18;;;;;;;11.95;4.80;;;;;;;;;;5032722;28;20029;-69
2021/07/14 06:21:44;;;;;;;16.05;4.25;;;;;;;;;;5048822;28;20354;-70
2021/07/14 06:24:10;;;;;;;16.23;4.35;;;;;;;;;;5052238;28;20072;-70
2021/07/14 06:26:36;;;;;;;13.23;5.15;;;;;;;;;;5052438;28;20454;-70
2021/07/14 06:29:03;;;;;;;8.95;4.20;;;;;;;;;;5052111;28;20374;-70
2021/07/14 06:31:29;;;;;;;11.13;4.65;;;;;;;;;;5052059;28;20372;-72
2021/07/14 06:33:55;;;;;;;13.05;5.60;;;;;;;;;;5052342;28;20025;-78
2021/07/14 06:36:21;;;;;;;16.33;6.35;;;;;;;;;;5052196;28;20516;-72
2021/07/14 06:38:47;;;;;;;18.48;6.95;;;;;;;;;;5052121;28;20037;-73
2021/07/14 06:41:17;;;;;;;14.45;6.82;;;;;;;;;;5052213;28;20071;-75
2021/07/14 06:43:45;;;;;;;13.02;7.03;;;;;;;;;;5052264;28;20025;-75
2021/07/14 06:46:16;;;;;;;19.52;8.23;;;;;;;;;;5052322;28;20039;-75
2021/07/14 06:48:42;;;;;;;15.77;7.75;;;;;;;;;;5050732;28;20466;-74
2021/07/14 06:51:08;;;;;;;18.65;8.80;;;;;;;;;;5051361;28;20417;-74
2021/07/14 06:53:34;;;;;;;23.73;8.70;;;;;;;;;;5051270;28;20029;-74
2021/07/14 06:56:00;;;;;;;13.63;7.68;;;;;;;;;;5052148;28;20025;-71
2021/07/14 06:58:27;;;;;;;15.02;7.45;;;;;;;;;;5054777;28;20025;-69
2021/07/14 07:00:53;;;;;;;18.75;7.35;;;;;;;;;;5053665;28;20029;-70
2021/07/14 07:03:20;;;;;;;17.83;7.60;;;;;;;;;;5055113;28;20489;-71
2021/07/14 07:05:46;;;;;;;20.33;7.03;;;;;;;;;;5056064;28;20048;-67
2021/07/14 07:08:12;;;;;;;14.20;6.68;;;;;;;;;;5055931;28;20381;-68
2021/07/14 07:10:39;;;;;;;10.52;6.03;;;;;;;;;;5056099;28;20025;-67
2021/07/14 07:13:05;;;;;;;13.13;5.85;;;;;;;;;;5056021;28;20021;-67
2021/07/14 07:15:31;;;;;;;13.85;4.80;;;;;;;;;;5055583;28;20098;-67
2021/07/14 07:17:57;;;;;;;10.65;3.95;;;;;;;;;;5055809;28;20024;-66
2021/07/14 07:20:23;;;;;;;10.40;3.53;;;;;;;;;;5055655;28;20545;-67
2021/07/14 07:22:50;;;;;;;10.13;3.28;;;;;;;;;;5055614;28;20041;-66
2021/07/14 07:25:16;;;;;;;9.15;3.25;;;;;;;;;;5055708;28;20037;-66
2021/07/14 07:27:43;;;;;;;13.80;3.85;;;;;;;;;;5055548;28;20397;-67
2021/07/14 07:30:10;;;;;;;16.20;3.47;;;;;;;;;;5054087;28;20069;-66
2021/07/14 07:32:36;;;;;;;13.75;3.20;;;;;;;;;;5055528;28;20021;-67
2021/07/14 07:35:03;;;;;;;11.88;3.00;;;;;;;;;;5055613;28;20381;-67
2021/07/14 07:37:29;;;;;;;12.88;2.67;;;;;;;;;;5055574;28;20029;-66
2021/07/14 07:39:55;;;;;;;10.98;2.78;;;;;;;;;;5055401;28;20036;-66
2021/07/14 07:42:21;;;;;;;12.95;2.70;;;;;;;;;;5055515;28;20025;-67
2021/07/14 07:44:48;;;;;;;11.35;2.95;;;;;;;;;;5055107;28;20021;-67
2021/07/14 07:47:14;;;;;;;13.02;2.90;;;;;;;;;;5054703;28;20102;-67
2021/07/14 07:49:45;;;;;;;10.85;2.88;;;;;;;;;;5055100;28;20021;-67
2021/07/14 07:52:11;;;;;;;6.43;2.38;;;;;;;;;;5055333;28;20025;-67
2021/07/14 07:54:37;;;;;;;10.82;2.72;;;;;;;;;;5054091;28;20032;-67
2021/07/14 07:57:03;;;;;;;8.35;2.85;;;;;;;;;;5053856;28;20098;-67
2021/07/14 07:59:29;;;;;;;15.77;2.92;;;;;;;;;;5055321;28;20020;-67
2021/07/14 08:01:55;;;;;;;11.43;2.40;;;;;;;;;;5055042;28;20071;-68
2021/07/14 08:04:21;;;;;;;9.85;2.03;;;;;;;;;;5054998;28;20082;-68
2021/07/14 08:06:47;;;;;;;9.02;2.58;;;;;;;;;;5054920;28;20021;-68
2021/07/14 08:09:14;;;;;;;9.82;2.00;;;;;;;;;;5054529;28;20032;-68
2021/07/14 08:11:40;;;;;;;8.20;2.28;;;;;;;;;;5054957;28;20025;-67
2021/07/14 08:14:06;;;;;;;12.65;2.33;;;;;;;;;;5054608;28;20454;-67
2021/07/14 08:16:32;;;;;;;8.88;1.90;;;;;;;;;;5054633;28;20029;-68
2021/07/14 08:18:58;;;;;;;14.02;2.45;;;;;;;;;;5054979;28;20048;-67
2021/07/14 08:21:26;;;;;;;13.50;2.13;;;;;;;;;;5054634;28;20025;-68
2021/07/14 08:23:53;;;;;;;10.02;1.90;;;;;;;;;;5054771;28;20096;-67
2021/07/14 08:26:19;;;;;;;11.63;2.10;;;;;;;;;;5053345;28;20381;-66
2021/07/14 08:28:45;;;;;;;11.30;2.33;;;;;;;;;;5053232;28;20055;-67
2021/07/14 08:31:11;;;;;;;12.70;2.08;;;;;;;;;;5053089;28;20027;-67
2021/07/14 08:33:37;;;;;;;8.60;2.00;;;;;;;;;;5053479;28;20064;-67
2021/07/14 08:36:03;;;;;;;7.07;2.08;;;;;;;;;;5054643;28;20087;-67
2021/07/14 08:38:29;;;;;;;12.88;2.45;;;;;;;;;;5054477;28;20470;-66
2021/07/14 08:40:58;;;;;;;8.85;2.13;;;;;;;;;;5054217;28;20021;-67
2021/07/14 08:43:27;;;;;;;5.53;1.60;;;;;;;;;;5054075;28;20436;-67
2021/07/14 08:45:54;;;;;;;11.85;2.30;;;;;;;;;;5054010;28;20033;-67
2021/07/14 08:48:20;;;;;;;9.60;2.42;;;;;;;;;;5054529;28;20087;-67
2021/07/14 08:50:46;;;;;;;12.48;2.22;;;;;;;;;;5054275;28;20029;-67
2021/07/14 08:53:15;;;;;;;12.48;2.28;;;;;;;;;;5054302;28;20138;-67
2021/07/14 08:55:42;;;;;;;12.10;2.38;;;;;;;;;;5054215;28;20045;-67
2021/07/14 08:58:10;;;;;;;7.20;1.88;;;;;;;;;;5054029;28;20033;-67
2021/07/14 09:00:36;;;;;;;12.85;2.08;;;;;;;;;;5054029;28;20040;-66
2021/07/14 09:03:03;;;;;;;10.55;1.90;;;;;;;;;;5054060;28;20033;-67
2021/07/14 09:05:29;;;;;;;9.88;2.10;;;;;;;;;;5053880;28;20071;-67
2021/07/14 09:07:55;;;;;;;9.60;1.73;;;;;;;;;;5053591;28;20025;-67
2021/07/14 09:10:21;;;;;;;13.85;1.88;;;;;;;;;;5053595;28;20052;-67
2021/07/14 09:12:47;;;;;;;8.63;2.08;;;;;;;;;;5054097;28;20488;-67
2021/07/14 09:15:21;;;;;;;10.27;1.98;;;;;;;;;;5053480;28;20056;-67
2021/07/14 09:17:51;;;;;;;12.43;2.58;;;;;;;;;;5053952;28;20413;-66
2021/07/14 09:20:17;;;;;;;7.25;1.70;;;;;;;;;;5052702;28;20082;-67
2021/07/14 09:22:43;;;;;;;6.28;1.85;;;;;;;;;;5053893;28;20033;-66
2021/07/14 09:25:12;;;;;;;8.98;2.30;;;;;;;;;;5053434;28;20057;-66
2021/07/14 09:27:39;;;;;;;13.75;2.35;;;;;;;;;;5053445;28;20470;-67
2021/07/14 09:30:06;;;;;;;9.00;2.08;;;;;;;;;;5053468;28;20021;-67
2021/07/14 09:32:53;;;;;;;10.20;2.13;;;;;;;;;;5053323;28;20429;-67
2021/07/14 09:35:23;;;;;;;8.77;2.22;;;;;;;;;;5053297;28;20029;-67
2021/07/14 09:37:49;;;;;;;11.75;2.47;;;;;;;;;;5053043;28;20369;-67
2021/07/14 09:40:16;;;;;;;9.52;1.92;;;;;;;;;;5052895;28;20446;-67
2021/07/14 09:43:01;;;;;;;10.13;2.20;;;;;;;;;;5053305;28;20428;-67
2021/07/14 09:45:45;;;;;;;9.30;2.05;;;;;;;;;;5053035;28;20033;-67
2021/07/14 09:48:28;;;;;;;11.40;1.88;;;;;;;;;;5053269;28;20469;-67
2021/07/14 09:50:58;;;;;;;8.25;1.85;;;;;;;;;;5053220;28;20032;-66
2021/07/14 09:53:27;;;;;;;14.77;2.00;;;;;;;;;;5053149;28;20035;-67
2021/07/14 09:55:55;;;;;;;9.68;2.55;;;;;;;;;;5053205;28;20017;-67
2021/07/14 09:58:23;;;;;;;8.43;2.22;;;;;;;;;;5053156;28;20037;-67
2021/07/14 10:00:53;;;;;;;9.63;2.17;;;;;;;;;;5052962;28;20024;-66
2021/07/14 10:03:21;;;;;;;9.02;2.25;;;;;;;;;;5052747;28;20035;-67
2021/07/14 10:05:47;;;;;;;10.07;2.40;;;;;;;;;;5052726;28;20045;-67
2021/07/14 10:08:14;;;;;;;8.95;1.85;;;;;;;;;;5053181;28;20032;-67
2021/07/14 10:10:40;;;;;;;7.40;2.03;;;;;;;;;;5053091;28;20020;-67
2021/07/14 10:13:07;;;;;;;8.32;2.10;;;;;;;;;;5052938;28;20029;-67
2021/07/14 10:15:33;;;;;;;11.18;2.00;;;;;;;;;;5052568;28;20045;-67
2021/07/14 10:17:59;;;;;;;9.40;2.03;;;;;;;;;;5052828;28;20100;-67
2021/07/14 10:20:35;;;;;;;7.63;1.67;;;;;;;;;;5052971;28;20057;-67
2021/07/14 10:23:01;;;;;;;9.73;1.90;;;;;;;;;;5052897;28;20025;-67
2021/07/14 10:25:28;;;;;;;9.82;2.33;;;;;;;;;;5052609;28;20112;-67
2021/07/14 10:27:54;;;;;;;10.82;2.08;;;;;;;;;;5052405;28;20022;-67
2021/07/14 10:30:21;;;;;;;7.28;1.63;;;;;;;;;;5052464;28;20025;-67
2021/07/14 10:32:47;;;;;;;12.70;2.00;;;;;;;;;;5043120;28;20116;-67
2021/07/14 10:35:17;;;;;;;10.27;1.98;;;;;;;;;;5036963;28;20022;-66
2021/07/14 10:37:59;;;;;;;17.55;2.75;;;;;;;;;;5037021;28;20034;-66
2021/07/14 10:40:25;;;;;;;;;;;;;;;;;;5037107;28;20104;-67
2021/07/14 10:42:55;;;;;;;14.45;2.63;;;;;;;;;;5036561;28;19944;-67
2021/07/14 10:45:22;;;;;;;8.40;1.83;;;;;;;;;;5036740;28;20040;-67
2021/07/14 10:47:48;;;;;;;18.33;2.45;;;;;;;;;;5036628;28;20025;-66
2021/07/14 10:50:15;;;;;;;9.50;1.90;;;;;;;;;;5036792;28;20393;-67
2021/07/14 10:52:42;;;;;;;11.20;2.20;;;;;;;;;;5036707;28;20022;-67
2021/07/14 10:55:16;;;;;;;9.38;2.45;;;;;;;;;;5036656;28;20470;-67
2021/07/14 10:57:42;;;;;;;13.00;2.45;;;;;;;;;;5036703;28;20013;-67
2021/07/14 11:00:10;;;;;;;10.45;2.05;;;;;;;;;;5036465;28;20068;-67
2021/07/14 11:02:46;;;;;;;9.30;2.03;;;;;;;;;;5036493;28;20022;-67
2021/07/14 11:05:14;;;;;;;17.60;2.50;;;;;;;;;;5036175;28;20108;-67
2021/07/14 11:07:40;;;;;;;13.10;2.10;;;;;;;;;;5036282;28;20429;-67
2021/07/14 11:10:21;;;;;;;10.48;2.70;;;;;;;;;;5036011;28;20032;-67
2021/07/14 11:12:47;;;;;;;15.63;2.67;;;;;;;;;;5036285;28;20112;-69
2021/07/14 11:15:27;;;;;;;13.32;2.65;;;;;;;;;;5035633;28;20049;-71
2021/07/14 11:17:53;;;;;;;10.13;2.45;;;;;;;;;;5036220;28;20061;-69
2021/07/14 11:20:19;;;;;;;11.52;2.20;;;;;;;;;;5036106;28;20025;-70
2021/07/14 11:22:48;;;;;;;13.88;2.63;;;;;;;;;;5036389;28;20060;-69
2021/07/14 11:25:20;;;;;;;13.18;2.38;;;;;;;;;;5035791;28;20033;-68
2021/07/14 11:27:48;;;;;;;11.30;2.70;;;;;;;;;;5036105;28;20030;-68
2021/07/14 11:30:14;;;;;;;8.73;2.38;;;;;;;;;;5036431;28;20080;-69
2021/07/14 11:32:44;;;;;;;9.93;2.42;;;;;;;;;;5035998;28;20029;-68
2021/07/14 11:35:22;;;;;;;12.35;2.58;;;;;;;;;;5036076;28;20037;-68
2021/07/14 11:37:48;;;;;;;14.00;2.95;;;;;;;;;;5035726;28;20025;-68
2021/07/14 11:40:20;;;;;;;10.88;1.90;;;;;;;;;;5035926;28;20116;-68
2021/07/14 11:42:52;;;;;;;8.55;2.40;;;;;;;;;;5035230;28;20024;-69
2021/07/14 11:45:21;;;;;;;9.15;2.20;;;;;;;;;;5035619;28;20026;-68
2021/07/14 11:47:59;;;;;;;13.32;2.22;;;;;;;;;;5035709;28;20104;-68
2021/07/14 11:50:47;;;;;;;12.75;2.65;;;;;;;;;;5035677;28;20501;-68
2021/07/14 11:53:31;;;;;;;8.02;2.20;;;;;;;;;;5035705;28;20034;-68
2021/07/14 11:56:04;;;;;;;13.70;2.70;;;;;;;;;;5035717;28;20022;-69
2021/07/14 11:58:45;;;;;;;9.68;2.50;;;;;;;;;;5035580;28;20040;-69
2021/07/14 12:01:17;;;;;;;14.80;2.43;;;;;;;;;;5035603;28;20064;-69
2021/07/14 12:04:04;;;;;;;16.13;2.78;;;;;;;;;;5035184;28;20436;-69
2021/07/14 12:06:33;;;;;;;11.73;1.73;;;;;;;;;;5035680;28;20044;-69
2021/07/14 12:08:59;;;;;;;7.45;1.88;;;;;;;;;;5035327;28;20560;-69
2021/07/14 12:11:25;;;;;;;10.90;2.05;;;;;;;;;;5035141;28;20044;-68
2021/07/14 12:13:51;;;;;;;10.38;2.17;;;;;;;;;;5034881;28;20410;-69
2021/07/14 12:16:30;;;;;;;7.97;2.15;;;;;;;;;;5035115;28;20037;-69
2021/07/14 12:18:57;;;;;;;11.65;2.25;;;;;;;;;;5033289;28;20112;-69
2021/07/14 12:21:33;;;;;;;11.80;1.85;;;;;;;;;;5034742;28;20021;-69
2021/07/14 12:23:59;;;;;;;6.93;1.80;;;;;;;;;;5034628;28;20049;-69
2021/07/14 12:26:25;;;;;;;9.82;2.08;;;;;;;;;;5034559;28;20033;-69
2021/07/14 12:28:51;;;;;;;11.15;2.65;;;;;;;;;;5034604;28;20071;-69
2021/07/14 12:31:19;;;;;;;10.25;1.85;;;;;;;;;;5034697;28;20033;-69
2021/07/14 12:33:45;;;;;;;9.85;2.03;;;;;;;;;;5034769;28;20029;-68
2021/07/14 12:36:11;;;;;;;7.88;1.80;;;;;;;;;;5034779;28;20025;-70
2021/07/14 12:38:37;;;;;;;7.43;1.77;;;;;;;;;;5034680;28;20029;-70
2021/07/14 12:41:10;;;;;;;15.20;1.95;;;;;;;;;;5034285;28;20037;-68
2021/07/14 12:43:36;;;;;;;9.48;1.80;;;;;;;;;;5034684;28;20025;-69
2021/07/14 12:46:02;;;;;;;10.30;1.92;;;;;;;;;;5034748;28;20045;-69
2021/07/14 12:48:31;;;;;;;7.90;1.77;;;;;;;;;;5034722;28;20025;-68
2021/07/14 12:51:00;;;;;;;12.10;2.75;;;;;;;;;;5034408;28;20041;-67
2021/07/14 12:53:26;;;;;;;7.45;2.00;;;;;;;;;;5034262;28;20048;-68
2021/07/14 12:55:57;;;;;;;10.88;2.25;;;;;;;;;;5033669;28;20057;-69
2021/07/14 12:58:25;;;;;;;12.70;1.90;;;;;;;;;;5034425;28;20029;-69
2021/07/14 13:00:53;;;;;;;12.90;2.50;;;;;;;;;;5034501;28;20064;-68
2021/07/14 13:03:21;;;;;;;14.25;1.90;;;;;;;;;;5033802;28;20032;-68
2021/07/14 13:05:50;;;;;;;8.25;2.00;;;;;;;;;;5033907;28;20041;-68
2021/07/14 13:08:24;;;;;;;7.22;1.63;;;;;;;;;;5032647;28;20564;-68
2021/07/14 13:11:00;;;;;;;9.35;1.67;;;;;;;;;;5034152;28;20029;-68
2021/07/14 13:13:26;;;;;;;8.75;1.73;;;;;;;;;;5034014;28;20041;-68
2021/07/14 13:15:54;;;;;;;7.00;1.75;;;;;;;;;;5033982;28;20080;-68
2021/07/14 13:18:20;;;;;;;8.85;2.03;;;;;;;;;;5033751;28;20555;-68
2021/07/14 13:20:50;;;;;;;8.30;1.45;;;;;;;;;;5033985;28;20402;-68
2021/07/14 13:23:21;;;;;;;7.95;1.73;;;;;;;;;;5032470;28;20029;-68
2021/07/14 13:25:48;;;;;;;10.68;1.98;;;;;;;;;;5032272;28;20037;-68
2021/07/14 13:28:28;;;;;;;13.07;1.75;;;;;;;;;;5031398;28;20075;-69
2021/07/14 13:30:57;;;;;;;12.20;2.30;;;;;;;;;;5031883;28;20029;-69
2021/07/14 13:33:32;;;;;;;13.38;2.38;;;;;;;;;;5033780;28;20420;-69
2021/07/14 13:36:05;;;;;;;7.35;1.73;;;;;;;;;;5033746;28;20159;-69
2021/07/14 13:38:35;;;;;;;13.05;2.10;;;;;;;;;;5033456;28;20029;-69
2021/07/14 13:41:16;;;;;;;10.88;2.20;;;;;;;;;;5033564;28;20029;-69
2021/07/14 13:43:57;;;;;;;8.93;1.90;;;;;;;;;;5033518;28;20025;-69
2021/07/14 13:46:29;;;;;;;11.40;2.03;;;;;;;;;;5033304;28;20287;-69
2021/07/14 13:48:55;;;;;;;;;;;;;;;;;;5034057;28;20078;-69
2021/07/14 13:51:53;;;;;;;10.50;2.47;;;;;;;;;;5033358;28;19905;-69
2021/07/14 13:54:22;;;;;;;8.40;1.98;;;;;;;;;;5028086;28;20033;-67
2021/07/14 13:56:51;;;;;;;11.25;2.17;;;;;;;;;;5032589;28;20037;-68
2021/07/14 13:59:31;;;;;;;7.47;1.95;;;;;;;;;;5032906;28;20017;-70
2021/07/14 14:02:10;;;;;;;13.23;2.33;;;;;;;;;;5033108;28;20025;-70
2021/07/14 14:04:46;;;;;;;11.35;2.28;;;;;;;;;;5031594;28;20071;-69
2021/07/14 14:07:15;;;;;;;6.65;1.75;;;;;;;;;;5031229;28;20116;-69
2021/07/14 14:10:00;;;;;;;11.93;2.05;;;;;;;;;;5031798;28;20028;-69
2021/07/14 14:12:26;;;;;;;9.40;2.17;;;;;;;;;;5031636;28;20128;-68
2021/07/14 14:14:58;;;;;;;10.50;2.00;;;;;;;;;;5032138;28;20111;-68
2021/07/14 14:17:26;;;;;;;6.57;1.85;;;;;;;;;;5032386;28;20511;-68
2021/07/14 14:19:53;;;;;;;12.45;2.03;;;;;;;;;;5032751;28;20460;-67
2021/07/14 14:22:23;;;;;;;12.30;2.60;;;;;;;;;;5031945;28;20036;-68
2021/07/14 14:24:49;;;;;;;12.48;2.50;;;;;;;;;;5032109;28;20030;-67
2021/07/14 14:27:16;;;;;;;11.73;2.15;;;;;;;;;;5032795;28;20026;-67
2021/07/14 14:29:42;;;;;;;11.00;1.88;;;;;;;;;;5032913;28;20079;-67
2021/07/14 14:32:09;;;;;;;6.95;2.10;;;;;;;;;;5032587;28;20071;-67
2021/07/14 14:34:38;;;;;;;8.65;1.80;;;;;;;;;;5032392;28;20036;-67
2021/07/14 14:37:04;;;;;;;8.07;2.25;;;;;;;;;;5031590;28;20098;-68
2021/07/14 14:39:30;;;;;;;11.05;1.95;;;;;;;;;;5032544;28;20028;-67
2021/07/14 14:41:56;;;;;;;8.80;2.03;;;;;;;;;;5032674;28;20445;-67
2021/07/14 14:44:23;;;;;;;8.60;1.73;;;;;;;;;;5031105;28;20064;-67
2021/07/14 14:46:49;;;;;;;6.90;2.10;;;;;;;;;;5032206;28;20117;-67